Charlottetown, Prince Edward Island

3:21 AM AST on January 27, 2015 (GMT -0400)
Charlottetown | Change Station
CLOSE
Current Station
Airport
Location: Charlottetown,
Elevation: 157 ft
Nearby Weather Stations

Elev 157 ft 46.29 °N, 63.13 °W | Updated 21 minutes ago

Overcast
Overcast
12 °F
Feels Like -4 °F
N
16
Wind Variable Wind from NE

Today is forecast to be nearly the same temperature as yesterday.

Today
High -- | Low -- °F
--% Chance of Precip.
Yesterday
High -- | Low -- °F
Precip. -- in
7:41 AM 5:09 PM
Waxing Crescent, 51% visible
Pressure 30.32 in
Visibility 15.0 miles
Clouds Scattered Clouds 1700 ft
Overcast 11000 ft
Windchill -4 °F
Dew Point 5 °F
Humidity 73%
Rainfall 0.00 in
Snow Depth Not available.
UV 0 out of 12
Pollen Not available.
Air Quality Not available.
Flu Activity Not available.
METAR CYYG 270700Z 04014KT 15SM SCT017 OVC110 M11/M15 A3031 RMK SC3AS5 PRESFR SLP266

More Conditions Fewer Conditions

Pressure 30.32 in
Visibility 15.0 miles
Clouds Scattered Clouds 1700 ft
Overcast 11000 ft
Windchill -4 °F
Dew Point 5 °F
Humidity 73%
Rainfall 0.00 in
Snow Depth Not available.
UV 0 out of 12
Pollen Not available.
Air Quality Not available.
Flu Activity Not available.
METAR CYYG 270700Z 04014KT 15SM SCT017 OVC110 M11/M15 A3031 RMK SC3AS5 PRESFR SLP266

More Conditions Fewer Conditions

Nowcast |

Blizzard Warning in effect

×

10-Day Weather Forecast

Almanac

Astronomy

Jan. 27, 2015 Rise Set
Actual Time
Civil Twilight
Nautical Twilight
Astronomical Twilight
Moon
Length of Visible Light
Length of Day
Tomorrow will be .
, % of the Moon is Illuminated

Today's Extremes

Country Highs Country Lows

Community

WunderPhotos

Upload Photos

1,790,543 photos uploaded!

WunderBlogs® & News

Nearby

Air Quality

  Air Quality AQ Index Pollutant
Not available.

Snow Depth

Station Depth Elevation

Earthquake Activity

City Distance Mag. Time & Date
Minimum magnitude displayed is 2.5.

Coastal Water Temperatures

Place Temperature

Nearby Weather Stations